sensor_id;sensor_type;location;lat;lon;timestamp;pressure;altitude;pressure_sealevel;temperature;humidity
32733;BME280;11867;51.198;11.966;2023-06-14T00:00:21;100477.28;;;16.66;69.14
32733;BME280;11867;51.198;11.966;2023-06-14T00:01:45;100479.25;;;16.74;69.12
32733;BME280;11867;51.198;11.966;2023-06-14T00:03:09;100474.84;;;16.65;69.37
32733;BME280;11867;51.198;11.966;2023-06-14T00:04:33;100471.72;;;16.58;69.75
32733;BME280;11867;51.198;11.966;2023-06-14T00:05:56;100468.13;;;16.40;70.14
32733;BME280;11867;51.198;11.966;2023-06-14T00:07:33;100474.59;;;16.44;69.87
32733;BME280;11867;51.198;11.966;2023-06-14T00:08:56;100469.09;;;16.44;70.23
32733;BME280;11867;51.198;11.966;2023-06-14T00:10:19;100470.53;;;16.41;69.74
32733;BME280;11867;51.198;11.966;2023-06-14T00:11:41;100471.69;;;16.49;69.46
32733;BME280;11867;51.198;11.966;2023-06-14T00:13:04;100470.94;;;16.66;68.93
32733;BME280;11867;51.198;11.966;2023-06-14T00:14:26;100469.66;;;16.63;68.96
32733;BME280;11867;51.198;11.966;2023-06-14T00:15:49;100467.88;;;16.67;68.87
32733;BME280;11867;51.198;11.966;2023-06-14T00:17:16;100473.84;;;16.52;69.30
32733;BME280;11867;51.198;11.966;2023-06-14T00:18:38;100461.75;;;16.30;69.59
32733;BME280;11867;51.198;11.966;2023-06-14T00:20:03;100470.41;;;16.15;70.15
32733;BME280;11867;51.198;11.966;2023-06-14T00:21:26;100469.25;;;15.85;70.82
32733;BME280;11867;51.198;11.966;2023-06-14T00:22:50;100473.06;;;15.75;70.76
32733;BME280;11867;51.198;11.966;2023-06-14T00:24:12;100465.66;;;15.62;70.90
32733;BME280;11867;51.198;11.966;2023-06-14T00:25:35;100471.75;;;15.72;70.97
32733;BME280;11867;51.198;11.966;2023-06-14T00:26:58;100466.53;;;15.48;71.51
32733;BME280;11867;51.198;11.966;2023-06-14T00:28:20;100472.31;;;15.47;71.53
32733;BME280;11867;51.198;11.966;2023-06-14T00:29:43;100471.63;;;15.05;72.96
32733;BME280;11867;51.198;11.966;2023-06-14T00:31:05;100463.19;;;15.01;73.46
32733;BME280;11867;51.198;11.966;2023-06-14T00:32:29;100459.88;;;15.13;73.05
32733;BME280;11867;51.198;11.966;2023-06-14T00:33:51;100465.06;;;15.14;72.96
32733;BME280;11867;51.198;11.966;2023-06-14T00:35:14;100465.50;;;15.08;73.05
32733;BME280;11867;51.198;11.966;2023-06-14T00:36:37;100467.38;;;15.21;72.92
32733;BME280;11867;51.198;11.966;2023-06-14T00:37:59;100469.25;;;14.98;73.48
32733;BME280;11867;51.198;11.966;2023-06-14T00:39:23;100464.19;;;14.91;73.55
32733;BME280;11867;51.198;11.966;2023-06-14T00:40:46;100464.50;;;14.90;73.92
32733;BME280;11867;51.198;11.966;2023-06-14T00:42:08;100468.66;;;15.01;73.65
32733;BME280;11867;51.198;11.966;2023-06-14T00:43:31;100468.72;;;15.24;72.85
32733;BME280;11867;51.198;11.966;2023-06-14T00:44:56;100469.91;;;15.31;72.69
32733;BME280;11867;51.198;11.966;2023-06-14T00:46:18;100467.28;;;15.26;72.88
32733;BME280;11867;51.198;11.966;2023-06-14T00:47:43;100469.25;;;15.12;73.52
32733;BME280;11867;51.198;11.966;2023-06-14T00:49:08;100472.25;;;15.38;72.61
32733;BME280;11867;51.198;11.966;2023-06-14T00:50:32;100467.38;;;15.35;72.96
32733;BME280;11867;51.198;11.966;2023-06-14T00:51:55;100472.16;;;15.29;72.73
32733;BME280;11867;51.198;11.966;2023-06-14T00:53:18;100473.03;;;15.52;72.12
32733;BME280;11867;51.198;11.966;2023-06-14T00:54:42;100469.78;;;15.50;71.88
32733;BME280;11867;51.198;11.966;2023-06-14T00:56:05;100479.59;;;15.29;72.96
32733;BME280;11867;51.198;11.966;2023-06-14T00:57:27;100475.59;;;14.99;73.58
32733;BME280;11867;51.198;11.966;2023-06-14T00:58:51;100477.41;;;14.89;74.18
32733;BME280;11867;51.198;11.966;2023-06-14T01:00:15;100477.53;;;14.70;74.86
32733;BME280;11867;51.198;11.966;2023-06-14T01:01:37;100472.03;;;14.84;74.60
32733;BME280;11867;51.198;11.966;2023-06-14T01:03:02;100467.97;;;14.82;74.72
32733;BME280;11867;51.198;11.966;2023-06-14T01:04:24;100475.59;;;14.71;75.31
32733;BME280;11867;51.198;11.966;2023-06-14T01:05:47;100472.84;;;14.85;74.77
32733;BME280;11867;51.198;11.966;2023-06-14T01:07:15;100476.19;;;15.09;74.01
32733;BME280;11867;51.198;11.966;2023-06-14T01:08:47;100485.31;;;15.19;73.72
32733;BME280;11867;51.198;11.966;2023-06-14T01:10:25;100468.13;;;15.13;73.70
32733;BME280;11867;51.198;11.966;2023-06-14T01:11:54;100473.84;;;14.61;75.52
32733;BME280;11867;51.198;11.966;2023-06-14T01:13:21;100474.66;;;14.76;75.18
32733;BME280;11867;51.198;11.966;2023-06-14T01:14:47;100469.59;;;14.83;75.03
32733;BME280;11867;51.198;11.966;2023-06-14T01:16:11;100473.16;;;14.97;74.90
32733;BME280;11867;51.198;11.966;2023-06-14T01:17:35;100468.22;;;15.22;73.87
32733;BME280;11867;51.198;11.966;2023-06-14T01:18:58;100470.06;;;15.12;74.05
32733;BME280;11867;51.198;11.966;2023-06-14T01:20:28;100461.59;;;15.23;73.50
32733;BME280;11867;51.198;11.966;2023-06-14T01:21:51;100467.81;;;15.14;73.65
32733;BME280;11867;51.198;11.966;2023-06-14T01:23:16;100471.38;;;15.15;73.78
32733;BME280;11867;51.198;11.966;2023-06-14T01:24:38;100468.31;;;15.17;74.01
32733;BME280;11867;51.198;11.966;2023-06-14T01:26:01;100470.03;;;15.26;73.81
32733;BME280;11867;51.198;11.966;2023-06-14T01:27:25;100460.00;;;15.22;74.02
32733;BME280;11867;51.198;11.966;2023-06-14T01:28:50;100469.06;;;15.08;74.41
32733;BME280;11867;51.198;11.966;2023-06-14T01:30:21;100473.94;;;14.98;74.62
32733;BME280;11867;51.198;11.966;2023-06-14T01:31:45;100472.28;;;15.24;73.79
32733;BME280;11867;51.198;11.966;2023-06-14T01:33:09;100478.00;;;15.00;74.84
32733;BME280;11867;51.198;11.966;2023-06-14T01:34:31;100471.38;;;15.15;74.52
32733;BME280;11867;51.198;11.966;2023-06-14T01:35:54;100473.88;;;15.25;74.05
32733;BME280;11867;51.198;11.966;2023-06-14T01:37:17;100477.47;;;15.26;74.23
32733;BME280;11867;51.198;11.966;2023-06-14T01:38:44;100474.13;;;15.15;73.93
32733;BME280;11867;51.198;11.966;2023-06-14T01:40:08;100466.44;;;14.89;75.14
32733;BME280;11867;51.198;11.966;2023-06-14T01:41:32;100475.19;;;14.78;75.37
32733;BME280;11867;51.198;11.966;2023-06-14T01:42:55;100462.59;;;14.90;74.99
32733;BME280;11867;51.198;11.966;2023-06-14T01:44:19;100479.13;;;14.71;75.92
32733;BME280;11867;51.198;11.966;2023-06-14T01:45:46;100482.00;;;14.66;76.27
32733;BME280;11867;51.198;11.966;2023-06-14T01:47:09;100478.25;;;14.62;75.93
32733;BME280;11867;51.198;11.966;2023-06-14T01:48:32;100478.31;;;14.43;76.75
32733;BME280;11867;51.198;11.966;2023-06-14T01:49:55;100478.38;;;14.38;77.22
32733;BME280;11867;51.198;11.966;2023-06-14T01:51:18;100480.97;;;14.62;76.00
32733;BME280;11867;51.198;11.966;2023-06-14T01:52:40;100483.41;;;14.78;75.65
32733;BME280;11867;51.198;11.966;2023-06-14T01:54:04;100479.22;;;14.94;74.85
32733;BME280;11867;51.198;11.966;2023-06-14T01:55:27;100486.63;;;14.52;76.65
32733;BME280;11867;51.198;11.966;2023-06-14T01:56:49;100481.88;;;14.71;76.01
32733;BME280;11867;51.198;11.966;2023-06-14T01:58:12;100482.91;;;14.89;75.42
32733;BME280;11867;51.198;11.966;2023-06-14T01:59:34;100481.28;;;14.88;75.22
32733;BME280;11867;51.198;11.966;2023-06-14T02:00:57;100482.06;;;14.47;76.45
32733;BME280;11867;51.198;11.966;2023-06-14T02:02:22;100480.13;;;14.01;78.45
32733;BME280;11867;51.198;11.966;2023-06-14T02:03:45;100480.28;;;14.24;77.54
32733;BME280;11867;51.198;11.966;2023-06-14T02:05:08;100480.53;;;14.41;76.94
32733;BME280;11867;51.198;11.966;2023-06-14T02:06:30;100477.50;;;14.43;76.93
32733;BME280;11867;51.198;11.966;2023-06-14T02:07:53;100483.91;;;14.52;76.40
32733;BME280;11867;51.198;11.966;2023-06-14T02:09:16;100481.63;;;14.40;76.53
32733;BME280;11867;51.198;11.966;2023-06-14T02:10:40;100482.25;;;14.37;77.15
32733;BME280;11867;51.198;11.966;2023-06-14T02:12:02;100480.41;;;14.46;76.76
32733;BME280;11867;51.198;11.966;2023-06-14T02:13:25;100485.00;;;14.37;77.27
32733;BME280;11867;51.198;11.966;2023-06-14T02:14:48;100484.19;;;14.50;76.97
32733;BME280;11867;51.198;11.966;2023-06-14T02:16:10;100491.25;;;14.70;75.99
32733;BME280;11867;51.198;11.966;2023-06-14T02:17:33;100483.28;;;14.55;76.29
32733;BME280;11867;51.198;11.966;2023-06-14T02:18:56;100477.44;;;14.62;76.13
32733;BME280;11867;51.198;11.966;2023-06-14T02:20:19;100485.66;;;14.76;75.76
32733;BME280;11867;51.198;11.966;2023-06-14T02:21:41;100480.56;;;14.69;75.95
32733;BME280;11867;51.198;11.966;2023-06-14T02:23:04;100482.41;;;14.60;76.44
32733;BME280;11867;51.198;11.966;2023-06-14T02:24:30;100484.94;;;14.56;76.50
32733;BME280;11867;51.198;11.966;2023-06-14T02:25:52;100479.44;;;14.56;76.15
32733;BME280;11867;51.198;11.966;2023-06-14T02:27:15;100483.78;;;14.43;76.84
32733;BME280;11867;51.198;11.966;2023-06-14T02:28:37;100484.59;;;14.44;77.07
32733;BME280;11867;51.198;11.966;2023-06-14T02:30:00;100503.19;;;14.33;77.97
32733;BME280;11867;51.198;11.966;2023-06-14T02:31:23;100496.38;;;13.98;79.12
32733;BME280;11867;51.198;11.966;2023-06-14T02:32:46;100496.09;;;14.13;78.92
32733;BME280;11867;51.198;11.966;2023-06-14T02:34:10;100494.94;;;14.33;78.30
32733;BME280;11867;51.198;11.966;2023-06-14T02:35:33;100490.03;;;14.16;78.52
32733;BME280;11867;51.198;11.966;2023-06-14T02:36:56;100491.75;;;14.26;78.34
32733;BME280;11867;51.198;11.966;2023-06-14T02:38:19;100497.59;;;14.05;79.32
32733;BME280;11867;51.198;11.966;2023-06-14T02:39:43;100494.19;;;14.13;78.81
32733;BME280;11867;51.198;11.966;2023-06-14T02:41:07;100490.88;;;14.30;78.01
32733;BME280;11867;51.198;11.966;2023-06-14T02:42:29;100493.41;;;14.27;78.13
32733;BME280;11867;51.198;11.966;2023-06-14T02:43:52;100492.19;;;14.47;77.38
32733;BME280;11867;51.198;11.966;2023-06-14T02:45:15;100490.78;;;14.36;77.77
32733;BME280;11867;51.198;11.966;2023-06-14T02:46:37;100491.81;;;14.40;77.56
32733;BME280;11867;51.198;11.966;2023-06-14T02:47:59;100497.06;;;14.36;77.64
32733;BME280;11867;51.198;11.966;2023-06-14T02:49:22;100499.16;;;14.11;78.67
32733;BME280;11867;51.198;11.966;2023-06-14T02:50:45;100501.00;;;13.83;79.63
32733;BME280;11867;51.198;11.966;2023-06-14T02:52:07;100507.34;;;13.98;79.43
32733;BME280;11867;51.198;11.966;2023-06-14T02:53:30;100505.03;;;14.05;79.06
32733;BME280;11867;51.198;11.966;2023-06-14T02:54:54;100498.63;;;14.09;78.77
32733;BME280;11867;51.198;11.966;2023-06-14T02:56:17;100506.84;;;14.09;78.60
32733;BME280;11867;51.198;11.966;2023-06-14T02:57:39;100504.94;;;14.10;78.74
32733;BME280;11867;51.198;11.966;2023-06-14T02:59:02;100499.19;;;13.92;79.69
32733;BME280;11867;51.198;11.966;2023-06-14T03:00:25;100498.50;;;14.01;79.36
32733;BME280;11867;51.198;11.966;2023-06-14T03:01:48;100505.41;;;13.98;79.33
32733;BME280;11867;51.198;11.966;2023-06-14T03:03:10;100501.69;;;13.75;79.94
32733;BME280;11867;51.198;11.966;2023-06-14T03:04:36;100498.25;;;13.83;79.64
32733;BME280;11867;51.198;11.966;2023-06-14T03:06:00;100502.50;;;13.57;81.06
32733;BME280;11867;51.198;11.966;2023-06-14T03:07:25;100516.06;;;13.67;80.73
32733;BME280;11867;51.198;11.966;2023-06-14T03:08:49;100507.88;;;13.62;80.40
32733;BME280;11867;51.198;11.966;2023-06-14T03:10:12;100513.22;;;13.72;79.83
32733;BME280;11867;51.198;11.966;2023-06-14T03:11:36;100512.13;;;13.73;80.01
32733;BME280;11867;51.198;11.966;2023-06-14T03:12:58;100509.38;;;13.73;80.14
32733;BME280;11867;51.198;11.966;2023-06-14T03:14:22;100508.88;;;13.71;80.31
32733;BME280;11867;51.198;11.966;2023-06-14T03:15:44;100519.06;;;13.84;80.04
32733;BME280;11867;51.198;11.966;2023-06-14T03:17:07;100521.75;;;14.03;79.21
32733;BME280;11867;51.198;11.966;2023-06-14T03:18:31;100520.97;;;14.03;79.01
32733;BME280;11867;51.198;11.966;2023-06-14T03:19:57;100515.81;;;14.15;78.35
32733;BME280;11867;51.198;11.966;2023-06-14T03:21:19;100514.66;;;14.02;78.77
32733;BME280;11867;51.198;11.966;2023-06-14T03:22:43;100520.84;;;13.94;79.49
32733;BME280;11867;51.198;11.966;2023-06-14T03:24:07;100521.47;;;14.05;79.31
32733;BME280;11867;51.198;11.966;2023-06-14T03:25:32;100514.13;;;13.67;80.60
32733;BME280;11867;51.198;11.966;2023-06-14T03:26:57;100520.50;;;13.63;80.67
32733;BME280;11867;51.198;11.966;2023-06-14T03:28:20;100519.72;;;13.76;79.98
32733;BME280;11867;51.198;11.966;2023-06-14T03:29:42;100519.72;;;13.76;79.96
32733;BME280;11867;51.198;11.966;2023-06-14T03:31:05;100522.06;;;13.50;81.82
32733;BME280;11867;51.198;11.966;2023-06-14T03:32:27;100524.09;;;13.39;82.46
32733;BME280;11867;51.198;11.966;2023-06-14T03:33:50;100525.88;;;13.30;83.03
32733;BME280;11867;51.198;11.966;2023-06-14T03:35:12;100528.91;;;13.04;84.51
32733;BME280;11867;51.198;11.966;2023-06-14T03:36:39;100532.88;;;12.93;84.50
32733;BME280;11867;51.198;11.966;2023-06-14T03:38:02;100533.06;;;12.48;86.19
32733;BME280;11867;51.198;11.966;2023-06-14T03:39:25;100533.75;;;12.35;87.48
32733;BME280;11867;51.198;11.966;2023-06-14T03:40:49;100534.03;;;12.34;87.88
32733;BME280;11867;51.198;11.966;2023-06-14T03:42:12;100535.22;;;11.93;89.73
32733;BME280;11867;51.198;11.966;2023-06-14T03:43:34;100544.69;;;12.01;90.28
32733;BME280;11867;51.198;11.966;2023-06-14T03:44:57;100543.16;;;11.89;90.48
32733;BME280;11867;51.198;11.966;2023-06-14T03:46:20;100542.88;;;11.86;91.32
32733;BME280;11867;51.198;11.966;2023-06-14T03:47:42;100537.44;;;12.20;90.46
32733;BME280;11867;51.198;11.966;2023-06-14T03:49:05;100545.31;;;12.56;88.10
32733;BME280;11867;51.198;11.966;2023-06-14T03:50:27;100545.38;;;12.99;85.97
32733;BME280;11867;51.198;11.966;2023-06-14T03:51:50;100543.69;;;13.27;83.93
32733;BME280;11867;51.198;11.966;2023-06-14T03:53:13;100545.28;;;13.52;83.28
32733;BME280;11867;51.198;11.966;2023-06-14T03:54:36;100546.41;;;13.70;82.71
32733;BME280;11867;51.198;11.966;2023-06-14T03:56:03;100545.66;;;13.84;81.90
32733;BME280;11867;51.198;11.966;2023-06-14T03:57:25;100537.66;;;13.87;81.53
32733;BME280;11867;51.198;11.966;2023-06-14T03:58:48;100546.09;;;13.91;81.67
32733;BME280;11867;51.198;11.966;2023-06-14T04:00:12;100548.38;;;14.03;81.27
32733;BME280;11867;51.198;11.966;2023-06-14T04:01:34;100549.13;;;13.89;81.32
32733;BME280;11867;51.198;11.966;2023-06-14T04:02:57;100549.56;;;13.97;80.82
32733;BME280;11867;51.198;11.966;2023-06-14T04:04:19;100556.00;;;13.87;81.23
32733;BME280;11867;51.198;11.966;2023-06-14T04:05:42;100565.78;;;13.93;81.53
32733;BME280;11867;51.198;11.966;2023-06-14T04:07:06;100556.91;;;13.63;81.69
32733;BME280;11867;51.198;11.966;2023-06-14T04:08:30;100559.41;;;13.79;81.70
32733;BME280;11867;51.198;11.966;2023-06-14T04:09:52;100564.16;;;13.92;81.31
32733;BME280;11867;51.198;11.966;2023-06-14T04:11:16;100561.13;;;13.93;81.06
32733;BME280;11867;51.198;11.966;2023-06-14T04:12:39;100564.69;;;13.94;80.90
32733;BME280;11867;51.198;11.966;2023-06-14T04:14:05;100560.06;;;14.08;80.76
32733;BME280;11867;51.198;11.966;2023-06-14T04:15:28;100562.47;;;13.96;80.97
32733;BME280;11867;51.198;11.966;2023-06-14T04:16:51;100565.34;;;14.05;80.90
32733;BME280;11867;51.198;11.966;2023-06-14T04:18:14;100568.16;;;14.00;80.55
32733;BME280;11867;51.198;11.966;2023-06-14T04:19:37;100561.66;;;13.96;81.03
32733;BME280;11867;51.198;11.966;2023-06-14T04:20:59;100565.47;;;14.13;80.64
32733;BME280;11867;51.198;11.966;2023-06-14T04:22:22;100566.59;;;14.12;80.03
32733;BME280;11867;51.198;11.966;2023-06-14T04:23:44;100561.19;;;13.88;81.76
32733;BME280;11867;51.198;11.966;2023-06-14T04:25:07;100558.16;;;14.09;80.53
32733;BME280;11867;51.198;11.966;2023-06-14T04:26:31;100566.94;;;14.25;80.57
32733;BME280;11867;51.198;11.966;2023-06-14T04:27:55;100561.91;;;14.46;79.28
32733;BME280;11867;51.198;11.966;2023-06-14T04:29:19;100556.69;;;14.63;78.79
32733;BME280;11867;51.198;11.966;2023-06-14T04:30:41;100559.06;;;14.51;79.42
32733;BME280;11867;51.198;11.966;2023-06-14T04:32:05;100572.44;;;14.25;80.42
32733;BME280;11867;51.198;11.966;2023-06-14T04:33:31;100567.09;;;14.15;80.75
32733;BME280;11867;51.198;11.966;2023-06-14T04:34:54;100572.50;;;14.20;80.68
32733;BME280;11867;51.198;11.966;2023-06-14T04:36:16;100575.72;;;14.41;80.28
32733;BME280;11867;51.198;11.966;2023-06-14T04:37:39;100572.50;;;14.52;80.55
32733;BME280;11867;51.198;11.966;2023-06-14T04:39:03;100580.78;;;14.66;80.49
32733;BME280;11867;51.198;11.966;2023-06-14T04:40:26;100571.75;;;14.66;80.44
32733;BME280;11867;51.198;11.966;2023-06-14T04:41:49;100571.06;;;14.74;79.25
32733;BME280;11867;51.198;11.966;2023-06-14T04:43:14;100574.81;;;14.78;79.29
32733;BME280;11867;51.198;11.966;2023-06-14T04:44:39;100574.81;;;14.78;79.13
32733;BME280;11867;51.198;11.966;2023-06-14T04:46:01;100579.31;;;15.02;78.08
32733;BME280;11867;51.198;11.966;2023-06-14T04:47:27;100584.91;;;14.97;77.68
32733;BME280;11867;51.198;11.966;2023-06-14T04:48:51;100579.22;;;15.07;77.78
32733;BME280;11867;51.198;11.966;2023-06-14T04:50:13;100582.75;;;15.21;76.74
32733;BME280;11867;51.198;11.966;2023-06-14T04:51:36;100576.34;;;15.12;78.08
32733;BME280;11867;51.198;11.966;2023-06-14T04:52:59;100585.09;;;15.28;77.56
32733;BME280;11867;51.198;11.966;2023-06-14T04:54:22;100587.00;;;15.27;77.34
32733;BME280;11867;51.198;11.966;2023-06-14T04:55:44;100582.94;;;15.11;78.37
32733;BME280;11867;51.198;11.966;2023-06-14T04:57:10;100585.91;;;15.14;78.26
32733;BME280;11867;51.198;11.966;2023-06-14T04:58:35;100592.94;;;15.07;78.25
32733;BME280;11867;51.198;11.966;2023-06-14T05:00:00;100587.34;;;15.26;77.93
32733;BME280;11867;51.198;11.966;2023-06-14T05:01:26;100588.25;;;15.07;79.00
32733;BME280;11867;51.198;11.966;2023-06-14T05:02:49;100594.34;;;14.90;80.17
32733;BME280;11867;51.198;11.966;2023-06-14T05:04:12;100586.72;;;14.87;79.84
32733;BME280;11867;51.198;11.966;2023-06-14T05:05:35;100584.00;;;15.01;79.22
32733;BME280;11867;51.198;11.966;2023-06-14T05:06:58;100587.03;;;15.00;79.04
32733;BME280;11867;51.198;11.966;2023-06-14T05:08:21;100578.97;;;15.17;78.91
32733;BME280;11867;51.198;11.966;2023-06-14T05:09:46;100583.06;;;15.20;78.36
32733;BME280;11867;51.198;11.966;2023-06-14T05:11:08;100584.91;;;15.38;77.62
32733;BME280;11867;51.198;11.966;2023-06-14T05:12:32;100585.78;;;15.33;78.21
32733;BME280;11867;51.198;11.966;2023-06-14T05:13:55;100585.69;;;15.39;78.48
32733;BME280;11867;51.198;11.966;2023-06-14T05:15:19;100575.59;;;15.48;77.21
32733;BME280;11867;51.198;11.966;2023-06-14T05:16:42;100586.00;;;15.37;78.70
32733;BME280;11867;51.198;11.966;2023-06-14T05:18:05;100576.22;;;15.59;77.37
32733;BME280;11867;51.198;11.966;2023-06-14T05:19:31;100589.47;;;15.43;77.46
32733;BME280;11867;51.198;11.966;2023-06-14T05:20:54;100591.00;;;15.35;78.50
32733;BME280;11867;51.198;11.966;2023-06-14T05:22:16;100584.19;;;15.19;79.40
32733;BME280;11867;51.198;11.966;2023-06-14T05:23:39;100578.91;;;14.95;79.56
32733;BME280;11867;51.198;11.966;2023-06-14T05:25:02;100586.22;;;14.99;79.92
32733;BME280;11867;51.198;11.966;2023-06-14T05:26:25;100583.75;;;14.84;80.31
32733;BME280;11867;51.198;11.966;2023-06-14T05:27:51;100587.03;;;15.13;79.64
32733;BME280;11867;51.198;11.966;2023-06-14T05:29:14;100579.31;;;15.16;79.21
32733;BME280;11867;51.198;11.966;2023-06-14T05:30:38;100580.94;;;15.17;79.63
32733;BME280;11867;51.198;11.966;2023-06-14T05:32:01;100585.78;;;14.92;79.37
32733;BME280;11867;51.198;11.966;2023-06-14T05:33:24;100588.25;;;14.93;79.57
32733;BME280;11867;51.198;11.966;2023-06-14T05:34:46;100584.47;;;15.17;79.19
32733;BME280;11867;51.198;11.966;2023-06-14T05:36:09;100589.47;;;15.43;78.22
32733;BME280;11867;51.198;11.966;2023-06-14T05:37:32;100582.47;;;15.09;79.38
32733;BME280;11867;51.198;11.966;2023-06-14T05:38:54;100586.31;;;15.36;78.64
32733;BME280;11867;51.198;11.966;2023-06-14T05:40:19;100572.13;;;15.56;78.04
32733;BME280;11867;51.198;11.966;2023-06-14T05:41:42;100582.00;;;15.57;78.32
32733;BME280;11867;51.198;11.966;2023-06-14T05:43:05;100586.88;;;15.74;76.77
32733;BME280;11867;51.198;11.966;2023-06-14T05:44:28;100575.97;;;15.83;76.40
32733;BME280;11867;51.198;11.966;2023-06-14T05:45:51;100579.38;;;16.02;75.31
32733;BME280;11867;51.198;11.966;2023-06-14T05:47:14;100586.59;;;15.48;77.72
32733;BME280;11867;51.198;11.966;2023-06-14T05:48:37;100579.41;;;14.97;79.86
32733;BME280;11867;51.198;11.966;2023-06-14T05:49:59;100579.72;;;14.95;80.50
32733;BME280;11867;51.198;11.966;2023-06-14T05:51:22;100587.66;;;15.24;79.24
32733;BME280;11867;51.198;11.966;2023-06-14T05:52:47;100586.22;;;15.41;77.88
32733;BME280;11867;51.198;11.966;2023-06-14T05:54:10;100590.09;;;15.26;78.90
32733;BME280;11867;51.198;11.966;2023-06-14T05:55:33;100591.41;;;15.42;77.69
32733;BME280;11867;51.198;11.966;2023-06-14T05:56:55;100588.03;;;15.73;77.00
32733;BME280;11867;51.198;11.966;2023-06-14T05:58:24;100593.94;;;15.52;77.31
32733;BME280;11867;51.198;11.966;2023-06-14T05:59:46;100598.19;;;15.72;77.60
32733;BME280;11867;51.198;11.966;2023-06-14T06:01:09;100601.53;;;16.06;76.06
32733;BME280;11867;51.198;11.966;2023-06-14T06:02:33;100597.97;;;15.83;76.57
32733;BME280;11867;51.198;11.966;2023-06-14T06:03:59;100598.97;;;15.87;75.78
32733;BME280;11867;51.198;11.966;2023-06-14T06:05:25;100597.94;;;15.97;76.57
32733;BME280;11867;51.198;11.966;2023-06-14T06:06:48;100604.25;;;15.83;76.54
32733;BME280;11867;51.198;11.966;2023-06-14T06:08:10;100607.47;;;15.63;77.35
32733;BME280;11867;51.198;11.966;2023-06-14T06:09:33;100609.41;;;15.34;78.38
32733;BME280;11867;51.198;11.966;2023-06-14T06:10:55;100607.06;;;15.14;79.16
32733;BME280;11867;51.198;11.966;2023-06-14T06:12:18;100612.03;;;15.40;78.34
32733;BME280;11867;51.198;11.966;2023-06-14T06:13:41;100607.75;;;15.61;78.27
32733;BME280;11867;51.198;11.966;2023-06-14T06:15:05;100605.72;;;15.67;77.91
32733;BME280;11867;51.198;11.966;2023-06-14T06:16:28;100615.41;;;15.50;77.87
32733;BME280;11867;51.198;11.966;2023-06-14T06:17:50;100607.78;;;15.20;79.06
32733;BME280;11867;51.198;11.966;2023-06-14T06:19:17;100612.25;;;15.57;78.42
32733;BME280;11867;51.198;11.966;2023-06-14T06:20:39;100608.97;;;15.69;78.12
32733;BME280;11867;51.198;11.966;2023-06-14T06:22:02;100609.16;;;15.86;77.53
32733;BME280;11867;51.198;11.966;2023-06-14T06:23:27;100613.63;;;15.96;77.19
32733;BME280;11867;51.198;11.966;2023-06-14T06:24:49;100619.41;;;15.94;77.38
32733;BME280;11867;51.198;11.966;2023-06-14T06:26:12;100623.19;;;15.99;76.92
32733;BME280;11867;51.198;11.966;2023-06-14T06:27:34;100613.19;;;16.03;77.19
32733;BME280;11867;51.198;11.966;2023-06-14T06:29:04;100616.91;;;16.21;76.40
32733;BME280;11867;51.198;11.966;2023-06-14T06:30:26;100618.56;;;16.30;75.74
32733;BME280;11867;51.198;11.966;2023-06-14T06:31:49;100622.69;;;15.97;75.40
32733;BME280;11867;51.198;11.966;2023-06-14T06:33:12;100627.47;;;15.91;76.02
32733;BME280;11867;51.198;11.966;2023-06-14T06:34:35;100628.53;;;16.04;76.15
32733;BME280;11867;51.198;11.966;2023-06-14T06:35:59;100626.22;;;15.97;76.56
32733;BME280;11867;51.198;11.966;2023-06-14T06:37:22;100631.13;;;16.00;76.79
32733;BME280;11867;51.198;11.966;2023-06-14T06:38:44;100632.16;;;16.27;75.86
32733;BME280;11867;51.198;11.966;2023-06-14T06:40:08;100627.56;;;16.45;75.08
32733;BME280;11867;51.198;11.966;2023-06-14T06:41:30;100629.31;;;16.63;74.83
32733;BME280;11867;51.198;11.966;2023-06-14T06:42:54;100633.75;;;16.73;74.38
32733;BME280;11867;51.198;11.966;2023-06-14T06:44:18;100630.34;;;16.76;74.25
32733;BME280;11867;51.198;11.966;2023-06-14T06:45:41;100626.16;;;17.01;73.98
32733;BME280;11867;51.198;11.966;2023-06-14T06:47:04;100627.16;;;17.05;73.31
32733;BME280;11867;51.198;11.966;2023-06-14T06:48:26;100627.94;;;16.74;73.98
32733;BME280;11867;51.198;11.966;2023-06-14T06:49:50;100629.69;;;16.70;73.72
32733;BME280;11867;51.198;11.966;2023-06-14T06:51:13;100631.31;;;16.94;73.21
32733;BME280;11867;51.198;11.966;2023-06-14T06:52:36;100633.84;;;16.82;73.79
32733;BME280;11867;51.198;11.966;2023-06-14T06:53:59;100629.06;;;16.96;72.66
32733;BME280;11867;51.198;11.966;2023-06-14T06:55:22;100626.31;;;16.51;74.50
32733;BME280;11867;51.198;11.966;2023-06-14T06:56:45;100631.75;;;16.65;73.98
32733;BME280;11867;51.198;11.966;2023-06-14T06:58:08;100632.88;;;16.64;74.21
32733;BME280;11867;51.198;11.966;2023-06-14T06:59:33;100632.63;;;16.74;74.41
32733;BME280;11867;51.198;11.966;2023-06-14T07:00:56;100625.78;;;16.94;73.68
32733;BME280;11867;51.198;11.966;2023-06-14T07:02:19;100637.56;;;17.17;72.87
32733;BME280;11867;51.198;11.966;2023-06-14T07:03:42;100632.75;;;17.31;72.28
32733;BME280;11867;51.198;11.966;2023-06-14T07:05:05;100643.09;;;17.26;71.81
32733;BME280;11867;51.198;11.966;2023-06-14T07:06:28;100635.97;;;16.85;72.87
32733;BME280;11867;51.198;11.966;2023-06-14T07:07:51;100637.34;;;17.05;72.69
32733;BME280;11867;51.198;11.966;2023-06-14T07:09:18;100633.13;;;17.07;72.35
32733;BME280;11867;51.198;11.966;2023-06-14T07:10:41;100633.84;;;17.22;72.14